Check out our new PWSWeather beta!
PWSweather.com
Personal Weather Stations
Station Observations
KNCGREEN1000
Bell Orchard Drive, Greensboro, NC 27455

Bell Orchard DriveGreensboro, NC 27455

Lat: 36.132, Lon: -79.8

Elevation: 876

Station Type: Acurite Atlas

Latest ConditionsUpdated 1:38:01 PM EST Monday, Feb 24, 2020
Currently Today's Max Today's Min Today's Average
Temperature 52.8°F11.6°C 55.8°F13.2°C 45.6°F7.6°C 49.6°F9.8°C
Dew Point 35.6°F2.0°C 39.0°F3.9°C 28.9°F-1.7°C 32.4°F0.2°C
Winds 3.0 mph S4.8 kmh S 11.0 mph -17.7 kmh - - 3.0 mph 4.8 kmh
Wind Gusts -- -- - -
Humidity 52% 61% 41% 52%
Pressure 30.08 in1018.6 mb 30.18 in1022.0 mb 30.08 in1018.6 mb -
Hour Temp Dew Point Humidity Winds Wind Gusts Pressure Precip Precip Rate Daily Precip Total
01:38 PM 52.8°F11.6°C 35.6°F2.0°C 52% 3.0 mph S4.8 kmh S -- 30.08 in1018.6 mb 0.00 in0.0 mm 0.00 in0.0 mm 0.00 in0.0 mm
01:33 PM 52.8°F11.6°C 35.6°F2.0°C 52% 6.0 mph SSW9.7 kmh SSW -- 30.09 in1019.0 mb 0.00 in0.0 mm 0.00 in0.0 mm 0.00 in0.0 mm
01:28 PM 52.6°F11.4°C 35.2°F1.8°C 52% 7.0 mph SE11.3 kmh SE -- 30.09 in1019.0 mb 0.00 in0.0 mm 0.00 in0.0 mm 0.00 in0.0 mm
01:23 PM 52.5°F11.4°C 35.7°F2.1°C 53% 5.0 mph SSW8.0 kmh SSW -- 30.10 in1019.3 mb 0.00 in0.0 mm 0.00 in0.0 mm 0.00 in0.0 mm
01:18 PM 52.6°F11.4°C 35.2°F1.8°C 52% 4.0 mph SSW6.4 kmh SSW -- 30.10 in1019.3 mb 0.00 in0.0 mm 0.00 in0.0 mm 0.00 in0.0 mm
01:13 PM 52.6°F11.4°C 34.8°F1.6°C 51% 5.0 mph SW8.0 kmh SW -- 30.11 in1019.6 mb 0.00 in0.0 mm 0.00 in0.0 mm 0.00 in0.0 mm
01:08 PM 52.8°F11.6°C 35.6°F2.0°C 52% 7.0 mph SW11.3 kmh SW -- 30.10 in1019.3 mb 0.00 in0.0 mm 0.00 in0.0 mm 0.00 in0.0 mm
01:03 PM 52.8°F11.6°C 34.6°F1.4°C 50% 6.0 mph S9.7 kmh S -- 30.11 in1019.6 mb 0.00 in0.0 mm 0.00 in0.0 mm 0.00 in0.0 mm
12:58 PM 53.1°F11.7°C 34.8°F1.6°C 50% 8.0 mph S12.9 kmh S -- 30.10 in1019.3 mb 0.00 in0.0 mm 0.00 in0.0 mm 0.00 in0.0 mm
12:53 PM 53.5°F11.9°C 34.6°F1.4°C 49% 10.0 mph SSW16.1 kmh SSW -- 30.10 in1019.3 mb 0.00 in0.0 mm 0.00 in0.0 mm 0.00 in0.0 mm
12:48 PM 53.7°F12.1°C 34.4°F1.3°C 48% 6.0 mph SW9.7 kmh SW -- 30.11 in1019.6 mb 0.00 in0.0 mm 0.00 in0.0 mm 0.00 in0.0 mm
12:43 PM 54.1°F12.3°C 34.2°F1.2°C 47% 4.0 mph SSW6.4 kmh SSW -- 30.11 in1019.6 mb 0.00 in0.0 mm 0.00 in0.0 mm 0.00 in0.0 mm
12:38 PM 54.6°F12.6°C 33.6°F0.9°C 45% 10.0 mph S16.1 kmh S -- 30.11 in1019.6 mb 0.00 in0.0 mm 0.00 in0.0 mm 0.00 in0.0 mm
12:33 PM 55.2°F12.9°C 33.5°F0.8°C 44% 6.0 mph S9.7 kmh S -- 30.11 in1019.6 mb 0.00 in0.0 mm 0.00 in0.0 mm 0.00 in0.0 mm
12:28 PM 55.5°F13.1°C 33.3°F0.7°C 43% 3.0 mph SSW4.8 kmh SSW -- 30.11 in1019.6 mb 0.00 in0.0 mm 0.00 in0.0 mm 0.00 in0.0 mm
12:23 PM 55.5°F13.1°C 33.8°F1.0°C 44% 5.0 mph S8.0 kmh S -- 30.11 in1019.6 mb 0.00 in0.0 mm 0.00 in0.0 mm 0.00 in0.0 mm
12:18 PM 55.6°F13.1°C 33.3°F0.7°C 43% 4.0 mph S6.4 kmh S -- 30.12 in1020.0 mb 0.00 in0.0 mm 0.00 in0.0 mm 0.00 in0.0 mm
12:13 PM 55.6°F13.1°C 33.8°F1.0°C 44% 8.0 mph W12.9 kmh W -- 30.12 in1020.0 mb 0.00 in0.0 mm 0.00 in0.0 mm 0.00 in0.0 mm
12:08 PM 55.3°F12.9°C 33.5°F0.8°C 44% 5.0 mph SSE8.0 kmh SSE -- 30.12 in1020.0 mb 0.00 in0.0 mm 0.00 in0.0 mm 0.00 in0.0 mm
12:03 PM 55.2°F12.9°C 34.6°F1.4°C 46% 7.0 mph SSW11.3 kmh SSW -- 30.12 in1020.0 mb 0.00 in0.0 mm 0.00 in0.0 mm 0.00 in0.0 mm
11:58 AM 55.1°F12.8°C 35.0°F1.7°C 47% 3.0 mph SW4.8 kmh SW -- 30.13 in1020.3 mb 0.00 in0.0 mm 0.00 in0.0 mm 0.00 in0.0 mm
11:53 AM 55.3°F12.9°C 34.1°F1.2°C 45% 3.0 mph SE4.8 kmh SE -- 30.13 in1020.3 mb 0.00 in0.0 mm 0.00 in0.0 mm 0.00 in0.0 mm
11:48 AM 55.3°F12.9°C 34.1°F1.2°C 45% 2.0 mph WSW3.2 kmh WSW -- 30.13 in1020.3 mb 0.00 in0.0 mm 0.00 in0.0 mm 0.00 in0.0 mm
11:43 AM 55.5°F13.1°C 33.3°F0.7°C 43% 3.0 mph WNW4.8 kmh WNW -- 30.14 in1020.7 mb 0.00 in0.0 mm 0.00 in0.0 mm 0.00 in0.0 mm
11:38 AM 55.8°F13.2°C 33.4°F0.8°C 43% 6.0 mph SW9.7 kmh SW -- 30.14 in1020.7 mb 0.00 in0.0 mm 0.00 in0.0 mm 0.00 in0.0 mm
11:33 AM 55.8°F13.2°C 32.2°F0.1°C 41% 4.0 mph SE6.4 kmh SE -- 30.14 in1020.7 mb 0.00 in0.0 mm 0.00 in0.0 mm 0.00 in0.0 mm
11:28 AM 55.8°F13.2°C 35.1°F1.7°C 46% 3.0 mph SSE4.8 kmh SSE -- 30.14 in1020.7 mb 0.00 in0.0 mm 0.00 in0.0 mm 0.00 in0.0 mm
11:23 AM 55.4°F13.0°C 33.7°F0.9°C 44% 2.0 mph SSE3.2 kmh SSE -- 30.14 in1020.7 mb 0.00 in0.0 mm 0.00 in0.0 mm 0.00 in0.0 mm
11:18 AM 55.2°F12.9°C 34.6°F1.4°C 46% 4.0 mph E6.4 kmh E -- 30.14 in1020.7 mb 0.00 in0.0 mm 0.00 in0.0 mm 0.00 in0.0 mm
11:13 AM 54.8°F12.7°C 35.9°F2.2°C 49% 4.0 mph S6.4 kmh S -- 30.14 in1020.7 mb 0.00 in0.0 mm 0.00 in0.0 mm 0.00 in0.0 mm
11:08 AM 54.3°F12.4°C 36.4°F2.4°C 51% 2.0 mph S3.2 kmh S -- 30.15 in1021.0 mb 0.00 in0.0 mm 0.00 in0.0 mm 0.00 in0.0 mm
11:03 AM 53.8°F12.1°C 36.4°F2.4°C 52% 2.0 mph S3.2 kmh S -- 30.15 in1021.0 mb 0.00 in0.0 mm 0.00 in0.0 mm 0.00 in0.0 mm
10:58 AM 53.3°F11.8°C 35.9°F2.2°C 52% 4.0 mph SW6.4 kmh SW -- 30.15 in1021.0 mb 0.00 in0.0 mm 0.00 in0.0 mm 0.00 in0.0 mm
10:53 AM 53.0°F11.7°C 38.1°F3.4°C 57% 4.0 mph S6.4 kmh S -- 30.15 in1021.0 mb 0.00 in0.0 mm 0.00 in0.0 mm 0.00 in0.0 mm
10:48 AM 52.7°F11.5°C 36.8°F2.7°C 55% 2.0 mph WSW3.2 kmh WSW -- 30.15 in1021.0 mb 0.00 in0.0 mm 0.00 in0.0 mm 0.00 in0.0 mm
10:43 AM 52.4°F11.3°C 38.3°F3.5°C 59% 2.0 mph S3.2 kmh S -- 30.15 in1021.0 mb 0.00 in0.0 mm 0.00 in0.0 mm 0.00 in0.0 mm
10:38 AM 52.2°F11.2°C 37.2°F2.9°C 57% 3.0 mph NNW4.8 kmh NNW -- 30.16 in1021.3 mb 0.00 in0.0 mm 0.00 in0.0 mm 0.00 in0.0 mm
10:33 AM 52.1°F11.2°C 39.0°F3.9°C 61% 1.0 mph SSE1.6 kmh SSE -- 30.16 in1021.3 mb 0.00 in0.0 mm 0.00 in0.0 mm 0.00 in0.0 mm
10:28 AM 52.0°F11.1°C 38.4°F3.6°C 60% 1.0 mph S1.6 kmh S -- 30.16 in1021.3 mb 0.00 in0.0 mm 0.00 in0.0 mm 0.00 in0.0 mm
10:23 AM 51.9°F11.1°C 37.5°F3.1°C 58% 2.0 mph SSW3.2 kmh SSW -- 30.17 in1021.7 mb 0.00 in0.0 mm 0.00 in0.0 mm 0.00 in0.0 mm
10:18 AM 52.0°F11.1°C 38.0°F3.3°C 59% 6.0 mph S9.7 kmh S -- 30.16 in1021.3 mb 0.00 in0.0 mm 0.00 in0.0 mm 0.00 in0.0 mm
10:13 AM 51.9°F11.1°C 36.6°F2.6°C 56% 3.0 mph SSE4.8 kmh SSE -- 30.17 in1021.7 mb 0.00 in0.0 mm 0.00 in0.0 mm 0.00 in0.0 mm
10:08 AM 51.7°F10.9°C 35.8°F2.1°C 55% 1.0 mph SSW1.6 kmh SSW -- 30.16 in1021.3 mb 0.00 in0.0 mm 0.00 in0.0 mm 0.00 in0.0 mm
10:03 AM 51.6°F10.9°C 36.7°F2.6°C 57% 10.0 mph W16.1 kmh W -- 30.17 in1021.7 mb 0.00 in0.0 mm 0.00 in0.0 mm 0.00 in0.0 mm
09:58 AM 51.6°F10.9°C 37.2°F2.9°C 58% 5.0 mph SW8.0 kmh SW -- 30.17 in1021.7 mb 0.00 in0.0 mm 0.00 in0.0 mm 0.00 in0.0 mm
09:53 AM 51.5°F10.8°C 36.6°F2.6°C 57% 2.0 mph S3.2 kmh S -- 30.18 in1022.0 mb 0.00 in0.0 mm 0.00 in0.0 mm 0.00 in0.0 mm
09:48 AM 51.4°F10.8°C 36.6°F2.6°C 57% 3.0 mph S4.8 kmh S -- 30.17 in1021.7 mb 0.00 in0.0 mm 0.00 in0.0 mm 0.00 in0.0 mm
09:43 AM 51.5°F10.8°C 36.6°F2.6°C 57% 1.0 mph S1.6 kmh S -- 30.18 in1022.0 mb 0.00 in0.0 mm 0.00 in0.0 mm 0.00 in0.0 mm
09:38 AM 52.1°F11.2°C 35.9°F2.2°C 54% 11.0 mph WSW17.7 kmh WSW -- 30.18 in1022.0 mb 0.00 in0.0 mm 0.00 in0.0 mm 0.00 in0.0 mm
09:33 AM 52.6°F11.4°C 33.7°F0.9°C 49% 4.0 mph N6.4 kmh N -- 30.18 in1022.0 mb 0.00 in0.0 mm 0.00 in0.0 mm 0.00 in0.0 mm
09:28 AM 52.7°F11.5°C 32.9°F0.5°C 47% 5.0 mph SE8.0 kmh SE -- 30.17 in1021.7 mb 0.00 in0.0 mm 0.00 in0.0 mm 0.00 in0.0 mm
09:23 AM 52.3°F11.3°C 34.1°F1.2°C 50% 7.0 mph SSW11.3 kmh SSW -- 30.17 in1021.7 mb 0.00 in0.0 mm 0.00 in0.0 mm 0.00 in0.0 mm
09:18 AM 51.8°F11.0°C 34.1°F1.2°C 51% 11.0 mph N17.7 kmh N -- 30.17 in1021.7 mb 0.00 in0.0 mm 0.00 in0.0 mm 0.00 in0.0 mm
09:13 AM 51.1°F10.6°C 33.4°F0.8°C 51% 7.0 mph NNE11.3 kmh NNE -- 30.17 in1021.7 mb 0.00 in0.0 mm 0.00 in0.0 mm 0.00 in0.0 mm
09:08 AM 50.3°F10.2°C 33.2°F0.7°C 52% 6.0 mph WSW9.7 kmh WSW -- 30.17 in1021.7 mb 0.00 in0.0 mm 0.00 in0.0 mm 0.00 in0.0 mm
09:03 AM 49.9°F9.9°C 32.3°F0.2°C 51% 3.0 mph SW4.8 kmh SW -- 30.17 in1021.7 mb 0.00 in0.0 mm 0.00 in0.0 mm 0.00 in0.0 mm
08:58 AM 49.7°F9.8°C 32.6°F0.3°C 52% 3.0 mph SE4.8 kmh SE -- 30.17 in1021.7 mb 0.00 in0.0 mm 0.00 in0.0 mm 0.00 in0.0 mm
08:53 AM 49.6°F9.8°C 33.0°F0.6°C 53% 2.0 mph NNE3.2 kmh NNE -- 30.16 in1021.3 mb 0.00 in0.0 mm 0.00 in0.0 mm 0.00 in0.0 mm
08:48 AM 49.6°F9.8°C 33.5°F0.8°C 54% 2.0 mph E3.2 kmh E -- 30.17 in1021.7 mb 0.00 in0.0 mm 0.00 in0.0 mm 0.00 in0.0 mm
08:43 AM 49.6°F9.8°C 32.6°F0.3°C 52% Calm Calm -- 30.17 in1021.7 mb 0.00 in0.0 mm 0.00 in0.0 mm 0.00 in0.0 mm
08:38 AM 49.5°F9.7°C 33.4°F0.8°C 54% Calm Calm -- 30.16 in1021.3 mb 0.00 in0.0 mm 0.00 in0.0 mm 0.00 in0.0 mm
08:33 AM 49.4°F9.7°C 32.9°F0.5°C 53% 1.0 mph SSW1.6 kmh SSW -- 30.16 in1021.3 mb 0.00 in0.0 mm 0.00 in0.0 mm 0.00 in0.0 mm
08:28 AM 49.4°F9.7°C 32.4°F0.2°C 52% 1.0 mph SE1.6 kmh SE -- 30.17 in1021.7 mb 0.00 in0.0 mm 0.00 in0.0 mm 0.00 in0.0 mm
08:23 AM 49.3°F9.6°C 32.2°F0.1°C 52% 3.0 mph S4.8 kmh S -- 30.17 in1021.7 mb 0.00 in0.0 mm 0.00 in0.0 mm 0.00 in0.0 mm
08:18 AM 49.2°F9.6°C 32.2°F0.1°C 52% 3.0 mph S4.8 kmh S -- 30.16 in1021.3 mb 0.00 in0.0 mm 0.00 in0.0 mm 0.00 in0.0 mm
08:13 AM 49.1°F9.5°C 32.1°F0.1°C 52% 2.0 mph SSW3.2 kmh SSW -- 30.16 in1021.3 mb 0.00 in0.0 mm 0.00 in0.0 mm 0.00 in0.0 mm
08:08 AM 49.0°F9.4°C 31.9°F-0.1°C 52% 3.0 mph S4.8 kmh S -- 30.15 in1021.0 mb 0.00 in0.0 mm 0.00 in0.0 mm 0.00 in0.0 mm
08:03 AM 48.8°F9.3°C 31.3°F-0.4°C 51% 2.0 mph WSW3.2 kmh WSW -- 30.15 in1021.0 mb 0.00 in0.0 mm 0.00 in0.0 mm 0.00 in0.0 mm
07:58 AM 48.9°F9.4°C 31.9°F-0.1°C 52% 1.0 mph SW1.6 kmh SW -- 30.15 in1021.0 mb 0.00 in0.0 mm 0.00 in0.0 mm 0.00 in0.0 mm
07:53 AM 48.8°F9.3°C 31.7°F-0.2°C 52% 8.0 mph NNE12.9 kmh NNE -- 30.15 in1021.0 mb 0.00 in0.0 mm 0.00 in0.0 mm 0.00 in0.0 mm
07:48 AM 48.7°F9.3°C 31.7°F-0.2°C 52% 4.0 mph NW6.4 kmh NW -- 30.15 in1021.0 mb 0.00 in0.0 mm 0.00 in0.0 mm 0.00 in0.0 mm
07:43 AM 48.7°F9.3°C 31.3°F-0.4°C 51% 2.0 mph ESE3.2 kmh ESE -- 30.15 in1021.0 mb 0.00 in0.0 mm 0.00 in0.0 mm 0.00 in0.0 mm
07:38 AM 48.5°F9.2°C 31.1°F-0.5°C 51% 2.0 mph SSW3.2 kmh SSW -- 30.15 in1021.0 mb 0.00 in0.0 mm 0.00 in0.0 mm 0.00 in0.0 mm
07:33 AM 48.4°F9.1°C 31.4°F-0.3°C 52% 3.0 mph WSW4.8 kmh WSW -- 30.14 in1020.7 mb 0.00 in0.0 mm 0.00 in0.0 mm 0.00 in0.0 mm
07:28 AM 48.3°F9.1°C 30.9°F-0.6°C 51% Calm Calm -- 30.14 in1020.7 mb 0.00 in0.0 mm 0.00 in0.0 mm 0.00 in0.0 mm
07:23 AM 48.2°F9.0°C 30.7°F-0.7°C 51% 3.0 mph S4.8 kmh S -- 30.14 in1020.7 mb 0.00 in0.0 mm 0.00 in0.0 mm 0.00 in0.0 mm
07:18 AM 48.2°F9.0°C 31.2°F-0.4°C 52% 3.0 mph WSW4.8 kmh WSW -- 30.14 in1020.7 mb 0.00 in0.0 mm 0.00 in0.0 mm 0.00 in0.0 mm
07:13 AM 48.1°F8.9°C 31.5°F-0.3°C 53% Calm Calm -- 30.15 in1021.0 mb 0.00 in0.0 mm 0.00 in0.0 mm 0.00 in0.0 mm
07:08 AM 48.1°F8.9°C 31.1°F-0.5°C 52% 2.0 mph SSW3.2 kmh SSW -- 30.15 in1021.0 mb 0.00 in0.0 mm 0.00 in0.0 mm 0.00 in0.0 mm
07:03 AM 48.1°F8.9°C 31.1°F-0.5°C 52% 2.0 mph S3.2 kmh S -- 30.15 in1021.0 mb 0.00 in0.0 mm 0.00 in0.0 mm 0.00 in0.0 mm
06:58 AM 48.1°F8.9°C 31.1°F-0.5°C 52% 2.0 mph S3.2 kmh S -- 30.15 in1021.0 mb 0.00 in0.0 mm 0.00 in0.0 mm 0.00 in0.0 mm
06:53 AM 48.1°F8.9°C 31.1°F-0.5°C 52% 2.0 mph SSW3.2 kmh SSW -- 30.14 in1020.7 mb 0.00 in0.0 mm 0.00 in0.0 mm 0.00 in0.0 mm
06:48 AM 47.9°F8.8°C 30.9°F-0.6°C 52% 2.0 mph S3.2 kmh S -- 30.14 in1020.7 mb 0.00 in0.0 mm 0.00 in0.0 mm 0.00 in0.0 mm
06:43 AM 47.9°F8.8°C 30.9°F-0.6°C 52% 2.0 mph WSW3.2 kmh WSW -- 30.14 in1020.7 mb 0.00 in0.0 mm 0.00 in0.0 mm 0.00 in0.0 mm
06:38 AM 47.7°F8.7°C 31.2°F-0.4°C 53% 6.0 mph SSE9.7 kmh SSE -- 30.14 in1020.7 mb 0.00 in0.0 mm 0.00 in0.0 mm 0.00 in0.0 mm
06:33 AM 47.6°F8.7°C 31.7°F-0.2°C 54% 2.0 mph SE3.2 kmh SE -- 30.15 in1021.0 mb 0.00 in0.0 mm 0.00 in0.0 mm 0.00 in0.0 mm
06:28 AM 47.5°F8.6°C 31.5°F-0.3°C 54% 6.0 mph WSW9.7 kmh WSW -- 30.15 in1021.0 mb 0.00 in0.0 mm 0.00 in0.0 mm 0.00 in0.0 mm
06:23 AM 47.4°F8.6°C 31.5°F-0.3°C 54% 3.0 mph S4.8 kmh S -- 30.15 in1021.0 mb 0.00 in0.0 mm 0.00 in0.0 mm 0.00 in0.0 mm
06:18 AM 47.3°F8.5°C 31.3°F-0.4°C 54% 4.0 mph S6.4 kmh S -- 30.14 in1020.7 mb 0.00 in0.0 mm 0.00 in0.0 mm 0.00 in0.0 mm
06:13 AM 47.2°F8.4°C 31.2°F-0.4°C 54% 3.0 mph S4.8 kmh S -- 30.14 in1020.7 mb 0.00 in0.0 mm 0.00 in0.0 mm 0.00 in0.0 mm
06:08 AM 47.1°F8.4°C 31.6°F-0.2°C 55% Calm Calm -- 30.14 in1020.7 mb 0.00 in0.0 mm 0.00 in0.0 mm 0.00 in0.0 mm
06:03 AM 47.0°F8.3°C 31.5°F-0.3°C 55% 2.0 mph S3.2 kmh S -- 30.14 in1020.7 mb 0.00 in0.0 mm 0.00 in0.0 mm 0.00 in0.0 mm
05:58 AM 47.0°F8.3°C 31.0°F-0.6°C 54% 2.0 mph SSW3.2 kmh SSW -- 30.13 in1020.3 mb 0.00 in0.0 mm 0.00 in0.0 mm 0.00 in0.0 mm
05:53 AM 46.9°F8.3°C 31.0°F-0.6°C 54% Calm Calm -- 30.14 in1020.7 mb 0.00 in0.0 mm 0.00 in0.0 mm 0.00 in0.0 mm
05:48 AM 46.9°F8.3°C 31.0°F-0.6°C 54% 3.0 mph S4.8 kmh S -- 30.14 in1020.7 mb 0.00 in0.0 mm 0.00 in0.0 mm 0.00 in0.0 mm
05:43 AM 46.8°F8.2°C 30.8°F-0.7°C 54% 3.0 mph S4.8 kmh S -- 30.14 in1020.7 mb 0.00 in0.0 mm 0.00 in0.0 mm 0.00 in0.0 mm
05:38 AM 46.9°F8.3°C 31.5°F-0.3°C 55% 2.0 mph S3.2 kmh S -- 30.13 in1020.3 mb 0.00 in0.0 mm 0.00 in0.0 mm 0.00 in0.0 mm
05:33 AM 47.0°F8.3°C 31.0°F-0.6°C 54% 2.0 mph S3.2 kmh S -- 30.13 in1020.3 mb 0.00 in0.0 mm 0.00 in0.0 mm 0.00 in0.0 mm
05:28 AM 47.1°F8.4°C 31.2°F-0.4°C 54% 2.0 mph S3.2 kmh S -- 30.14 in1020.7 mb 0.00 in0.0 mm 0.00 in0.0 mm 0.00 in0.0 mm
05:23 AM 47.1°F8.4°C 31.2°F-0.4°C 54% Calm Calm -- 30.14 in1020.7 mb 0.00 in0.0 mm 0.00 in0.0 mm 0.00 in0.0 mm
05:18 AM 47.3°F8.5°C 31.3°F-0.4°C 54% 2.0 mph S3.2 kmh S -- 30.13 in1020.3 mb 0.00 in0.0 mm 0.00 in0.0 mm 0.00 in0.0 mm
05:13 AM 47.2°F8.4°C 30.7°F-0.7°C 53% 2.0 mph S3.2 kmh S -- 30.13 in1020.3 mb 0.00 in0.0 mm 0.00 in0.0 mm 0.00 in0.0 mm
05:08 AM 47.4°F8.6°C 31.5°F-0.3°C 54% 2.0 mph SE3.2 kmh SE -- 30.13 in1020.3 mb 0.00 in0.0 mm 0.00 in0.0 mm 0.00 in0.0 mm
05:03 AM 47.5°F8.6°C 31.0°F-0.6°C 53% Calm Calm -- 30.13 in1020.3 mb 0.00 in0.0 mm 0.00 in0.0 mm 0.00 in0.0 mm
04:58 AM 47.5°F8.6°C 31.0°F-0.6°C 53% 3.0 mph S4.8 kmh S -- 30.14 in1020.7 mb 0.00 in0.0 mm 0.00 in0.0 mm 0.00 in0.0 mm
04:48 AM 47.5°F8.6°C 31.0°F-0.6°C 53% 2.0 mph S3.2 kmh S -- 30.13 in1020.3 mb 0.00 in0.0 mm 0.00 in0.0 mm 0.00 in0.0 mm
04:43 AM 47.6°F8.7°C 31.2°F-0.4°C 53% 2.0 mph S3.2 kmh S -- 30.13 in1020.3 mb 0.00 in0.0 mm 0.00 in0.0 mm 0.00 in0.0 mm
04:38 AM 47.6°F8.7°C 31.2°F-0.4°C 53% 3.0 mph S4.8 kmh S -- 30.13 in1020.3 mb 0.00 in0.0 mm 0.00 in0.0 mm 0.00 in0.0 mm
04:33 AM 47.7°F8.7°C 31.2°F-0.4°C 53% 2.0 mph SSE3.2 kmh SSE -- 30.13 in1020.3 mb 0.00 in0.0 mm 0.00 in0.0 mm 0.00 in0.0 mm
04:28 AM 47.7°F8.7°C 31.2°F-0.4°C 53% 3.0 mph SW4.8 kmh SW -- 30.13 in1020.3 mb 0.00 in0.0 mm 0.00 in0.0 mm 0.00 in0.0 mm
04:23 AM 47.7°F8.7°C 30.7°F-0.7°C 52% 2.0 mph SSW3.2 kmh SSW -- 30.13 in1020.3 mb 0.00 in0.0 mm 0.00 in0.0 mm 0.00 in0.0 mm
04:18 AM 47.7°F8.7°C 30.7°F-0.7°C 52% 2.0 mph S3.2 kmh S -- 30.13 in1020.3 mb 0.00 in0.0 mm 0.00 in0.0 mm 0.00 in0.0 mm
04:13 AM 47.8°F8.8°C 31.4°F-0.3°C 53% 2.0 mph S3.2 kmh S -- 30.13 in1020.3 mb 0.00 in0.0 mm 0.00 in0.0 mm 0.00 in0.0 mm
04:08 AM 47.8°F8.8°C 31.4°F-0.3°C 53% 3.0 mph S4.8 kmh S -- 30.13 in1020.3 mb 0.00 in0.0 mm 0.00 in0.0 mm 0.00 in0.0 mm
04:03 AM 47.8°F8.8°C 31.4°F-0.3°C 53% 3.0 mph S4.8 kmh S -- 30.14 in1020.7 mb 0.00 in0.0 mm 0.00 in0.0 mm 0.00 in0.0 mm
03:58 AM 47.8°F8.8°C 30.9°F-0.6°C 52% 3.0 mph SSW4.8 kmh SSW -- 30.14 in1020.7 mb 0.00 in0.0 mm 0.00 in0.0 mm 0.00 in0.0 mm
03:53 AM 47.7°F8.7°C 31.2°F-0.4°C 53% 2.0 mph S3.2 kmh S -- 30.13 in1020.3 mb 0.00 in0.0 mm 0.00 in0.0 mm 0.00 in0.0 mm
03:48 AM 47.7°F8.7°C 31.2°F-0.4°C 53% 5.0 mph S8.0 kmh S -- 30.13 in1020.3 mb 0.00 in0.0 mm 0.00 in0.0 mm 0.00 in0.0 mm
03:43 AM 47.6°F8.7°C 30.7°F-0.7°C 52% 2.0 mph S3.2 kmh S -- 30.13 in1020.3 mb 0.00 in0.0 mm 0.00 in0.0 mm 0.00 in0.0 mm
03:38 AM 47.7°F8.7°C 31.2°F-0.4°C 53% 2.0 mph S3.2 kmh S -- 30.13 in1020.3 mb 0.00 in0.0 mm 0.00 in0.0 mm 0.00 in0.0 mm
03:33 AM 47.7°F8.7°C 30.7°F-0.7°C 52% 3.0 mph S4.8 kmh S -- 30.13 in1020.3 mb 0.00 in0.0 mm 0.00 in0.0 mm 0.00 in0.0 mm
03:28 AM 47.8°F8.8°C 30.9°F-0.6°C 52% 3.0 mph S4.8 kmh S -- 30.14 in1020.7 mb 0.00 in0.0 mm 0.00 in0.0 mm 0.00 in0.0 mm
03:23 AM 47.8°F8.8°C 30.9°F-0.6°C 52% 2.0 mph S3.2 kmh S -- 30.14 in1020.7 mb 0.00 in0.0 mm 0.00 in0.0 mm 0.00 in0.0 mm
03:18 AM 47.8°F8.8°C 30.9°F-0.6°C 52% 2.0 mph S3.2 kmh S -- 30.14 in1020.7 mb 0.00 in0.0 mm 0.00 in0.0 mm 0.00 in0.0 mm
03:13 AM 47.8°F8.8°C 30.9°F-0.6°C 52% 3.0 mph S4.8 kmh S -- 30.14 in1020.7 mb 0.00 in0.0 mm 0.00 in0.0 mm 0.00 in0.0 mm
03:08 AM 47.8°F8.8°C 30.9°F-0.6°C 52% 2.0 mph S3.2 kmh S -- 30.14 in1020.7 mb 0.00 in0.0 mm 0.00 in0.0 mm 0.00 in0.0 mm
03:03 AM 47.8°F8.8°C 30.4°F-0.9°C 51% 3.0 mph S4.8 kmh S -- 30.14 in1020.7 mb 0.00 in0.0 mm 0.00 in0.0 mm 0.00 in0.0 mm
02:58 AM 47.7°F8.7°C 30.7°F-0.7°C 52% 3.0 mph S4.8 kmh S -- 30.14 in1020.7 mb 0.00 in0.0 mm 0.00 in0.0 mm 0.00 in0.0 mm
02:53 AM 47.8°F8.8°C 30.9°F-0.6°C 52% 2.0 mph S3.2 kmh S -- 30.15 in1021.0 mb 0.00 in0.0 mm 0.00 in0.0 mm 0.00 in0.0 mm
02:48 AM 47.7°F8.7°C 30.7°F-0.7°C 52% 2.0 mph S3.2 kmh S -- 30.15 in1021.0 mb 0.00 in0.0 mm 0.00 in0.0 mm 0.00 in0.0 mm
02:43 AM 47.7°F8.7°C 30.7°F-0.7°C 52% 3.0 mph S4.8 kmh S -- 30.15 in1021.0 mb 0.00 in0.0 mm 0.00 in0.0 mm 0.00 in0.0 mm
02:38 AM 47.6°F8.7°C 30.7°F-0.7°C 52% 1.0 mph SSE1.6 kmh SSE -- 30.15 in1021.0 mb 0.00 in0.0 mm 0.00 in0.0 mm 0.00 in0.0 mm
02:33 AM 47.7°F8.7°C 30.7°F-0.7°C 52% 3.0 mph SSE4.8 kmh SSE -- 30.16 in1021.3 mb 0.00 in0.0 mm 0.00 in0.0 mm 0.00 in0.0 mm
02:28 AM 47.6°F8.7°C 30.7°F-0.7°C 52% 3.0 mph S4.8 kmh S -- 30.16 in1021.3 mb 0.00 in0.0 mm 0.00 in0.0 mm 0.00 in0.0 mm
02:23 AM 47.5°F8.6°C 30.1°F-1.1°C 51% 2.0 mph S3.2 kmh S -- 30.16 in1021.3 mb 0.00 in0.0 mm 0.00 in0.0 mm 0.00 in0.0 mm
02:18 AM 47.5°F8.6°C 30.6°F-0.8°C 52% 3.0 mph S4.8 kmh S -- 30.16 in1021.3 mb 0.00 in0.0 mm 0.00 in0.0 mm 0.00 in0.0 mm
02:13 AM 47.3°F8.5°C 30.4°F-0.9°C 52% 4.0 mph S6.4 kmh S -- 30.16 in1021.3 mb 0.00 in0.0 mm 0.00 in0.0 mm 0.00 in0.0 mm
02:08 AM 47.3°F8.5°C 30.4°F-0.9°C 52% 2.0 mph S3.2 kmh S -- 30.17 in1021.7 mb 0.00 in0.0 mm 0.00 in0.0 mm 0.00 in0.0 mm
02:03 AM 47.1°F8.4°C 30.2°F-1.0°C 52% 2.0 mph S3.2 kmh S -- 30.17 in1021.7 mb 0.00 in0.0 mm 0.00 in0.0 mm 0.00 in0.0 mm
01:58 AM 47.1°F8.4°C 30.2°F-1.0°C 52% 3.0 mph S4.8 kmh S -- 30.16 in1021.3 mb 0.00 in0.0 mm 0.00 in0.0 mm 0.00 in0.0 mm
01:53 AM 46.9°F8.3°C 30.1°F-1.1°C 52% 3.0 mph S4.8 kmh S -- 30.17 in1021.7 mb 0.00 in0.0 mm 0.00 in0.0 mm 0.00 in0.0 mm
01:48 AM 46.8°F8.2°C 29.9°F-1.2°C 52% 3.0 mph SSE4.8 kmh SSE -- 30.16 in1021.3 mb 0.00 in0.0 mm 0.00 in0.0 mm 0.00 in0.0 mm
01:43 AM 46.7°F8.2°C 30.4°F-0.9°C 53% 2.0 mph S3.2 kmh S -- 30.16 in1021.3 mb 0.00 in0.0 mm 0.00 in0.0 mm 0.00 in0.0 mm
01:38 AM 46.6°F8.1°C 30.2°F-1.0°C 53% 3.0 mph S4.8 kmh S -- 30.17 in1021.7 mb 0.00 in0.0 mm 0.00 in0.0 mm 0.00 in0.0 mm
01:33 AM 46.4°F8.0°C 30.0°F-1.1°C 53% 1.0 mph S1.6 kmh S -- 30.17 in1021.7 mb 0.00 in0.0 mm 0.00 in0.0 mm 0.00 in0.0 mm
01:28 AM 46.3°F7.9°C 30.3°F-0.9°C 54% 2.0 mph S3.2 kmh S -- 30.17 in1021.7 mb 0.00 in0.0 mm 0.00 in0.0 mm 0.00 in0.0 mm
01:23 AM 46.0°F7.8°C 29.7°F-1.3°C 53% 2.0 mph S3.2 kmh S -- 30.17 in1021.7 mb 0.00 in0.0 mm 0.00 in0.0 mm 0.00 in0.0 mm
01:18 AM 45.8°F7.7°C 30.0°F-1.1°C 54% 3.0 mph S4.8 kmh S -- 30.17 in1021.7 mb 0.00 in0.0 mm 0.00 in0.0 mm 0.00 in0.0 mm
01:13 AM 45.7°F7.6°C 29.8°F-1.2°C 54% 2.0 mph SSE3.2 kmh SSE -- 30.17 in1021.7 mb 0.00 in0.0 mm 0.00 in0.0 mm 0.00 in0.0 mm
01:08 AM 45.8°F7.7°C 30.0°F-1.1°C 54% 2.0 mph SE3.2 kmh SE -- 30.17 in1021.7 mb 0.00 in0.0 mm 0.00 in0.0 mm 0.00 in0.0 mm
01:03 AM 45.7°F7.6°C 29.8°F-1.2°C 54% 1.0 mph S1.6 kmh S -- 30.17 in1021.7 mb 0.00 in0.0 mm 0.00 in0.0 mm 0.00 in0.0 mm
12:58 AM 45.7°F7.6°C 29.4°F-1.4°C 53% 1.0 mph S1.6 kmh S -- 30.17 in1021.7 mb 0.00 in0.0 mm 0.00 in0.0 mm 0.00 in0.0 mm
12:53 AM 45.6°F7.6°C 29.4°F-1.4°C 53% Calm Calm -- 30.17 in1021.7 mb 0.00 in0.0 mm 0.00 in0.0 mm 0.00 in0.0 mm
12:48 AM 45.7°F7.6°C 29.4°F-1.4°C 53% Calm Calm -- 30.17 in1021.7 mb 0.00 in0.0 mm 0.00 in0.0 mm 0.00 in0.0 mm
12:43 AM 45.8°F7.7°C 29.1°F-1.6°C 52% Calm Calm -- 30.17 in1021.7 mb 0.00 in0.0 mm 0.00 in0.0 mm 0.00 in0.0 mm
12:38 AM 46.1°F7.8°C 29.2°F-1.6°C 52% 1.0 mph S1.6 kmh S -- 30.17 in1021.7 mb 0.00 in0.0 mm 0.00 in0.0 mm 0.00 in0.0 mm
12:33 AM 46.3°F7.9°C 29.4°F-1.4°C 52% Calm Calm -- 30.17 in1021.7 mb 0.00 in0.0 mm 0.00 in0.0 mm 0.00 in0.0 mm
12:28 AM 46.5°F8.1°C 29.2°F-1.6°C 51% Calm Calm -- 30.18 in1022.0 mb 0.00 in0.0 mm 0.00 in0.0 mm 0.00 in0.0 mm
12:23 AM 46.9°F8.3°C 29.1°F-1.6°C 50% Calm Calm -- 30.18 in1022.0 mb 0.00 in0.0 mm 0.00 in0.0 mm 0.00 in0.0 mm
12:18 AM 47.2°F8.4°C 29.3°F-1.5°C 50% Calm Calm -- 30.18 in1022.0 mb 0.00 in0.0 mm 0.00 in0.0 mm 0.00 in0.0 mm
12:13 AM 47.5°F8.6°C 29.1°F-1.6°C 49% Calm Calm -- 30.18 in1022.0 mb 0.00 in0.0 mm 0.00 in0.0 mm 0.00 in0.0 mm
12:08 AM 47.8°F8.8°C 28.9°F-1.7°C 48% Calm Calm -- 30.18 in1022.0 mb 0.00 in0.0 mm 0.00 in0.0 mm 0.00 in0.0 mm
12:03 AM 48.0°F8.9°C 29.1°F-1.6°C 48% 2.0 mph S3.2 kmh S -- 30.18 in1022.0 mb 0.00 in0.0 mm 0.00 in0.0 mm 0.00 in0.0 mm